sensor_id;sensor_type;location;lat;lon;timestamp;temperature;humidity
73955;DHT22;62306;52.516;13.290;2023-07-22T00:00:05;15.40;99.90
73955;DHT22;62306;52.516;13.290;2023-07-22T00:02:34;15.50;99.90
73955;DHT22;62306;52.516;13.290;2023-07-22T00:05:01;15.50;99.90
73955;DHT22;62306;52.516;13.290;2023-07-22T00:07:29;15.50;99.90
73955;DHT22;62306;52.516;13.290;2023-07-22T00:09:56;15.60;99.90
73955;DHT22;62306;52.516;13.290;2023-07-22T00:12:25;15.60;99.90
73955;DHT22;62306;52.516;13.290;2023-07-22T00:14:52;15.70;99.90
73955;DHT22;62306;52.516;13.290;2023-07-22T00:17:20;15.70;99.90
73955;DHT22;62306;52.516;13.290;2023-07-22T00:19:53;15.70;99.90
73955;DHT22;62306;52.516;13.290;2023-07-22T00:22:23;15.70;99.90
73955;DHT22;62306;52.516;13.290;2023-07-22T00:24:55;15.80;99.90
73955;DHT22;62306;52.516;13.290;2023-07-22T00:27:24;15.90;99.90
73955;DHT22;62306;52.516;13.290;2023-07-22T00:29:57;15.90;99.90
73955;DHT22;62306;52.516;13.290;2023-07-22T00:32:24;15.90;99.90
73955;DHT22;62306;52.516;13.290;2023-07-22T00:35:07;15.90;99.90
73955;DHT22;62306;52.516;13.290;2023-07-22T00:37:37;15.90;99.90
73955;DHT22;62306;52.516;13.290;2023-07-22T00:40:05;15.90;99.90
73955;DHT22;62306;52.516;13.290;2023-07-22T00:42:39;15.80;99.90
73955;DHT22;62306;52.516;13.290;2023-07-22T00:45:07;15.80;99.90
73955;DHT22;62306;52.516;13.290;2023-07-22T00:47:34;15.90;99.90
73955;DHT22;62306;52.516;13.290;2023-07-22T00:50:03;15.80;99.90
73955;DHT22;62306;52.516;13.290;2023-07-22T00:52:33;15.80;99.90
73955;DHT22;62306;52.516;13.290;2023-07-22T00:55:01;15.80;99.90
73955;DHT22;62306;52.516;13.290;2023-07-22T00:57:28;15.80;99.90
73955;DHT22;62306;52.516;13.290;2023-07-22T00:59:57;15.80;99.90
73955;DHT22;62306;52.516;13.290;2023-07-22T01:02:24;15.80;99.90
73955;DHT22;62306;52.516;13.290;2023-07-22T01:04:51;15.80;99.90
73955;DHT22;62306;52.516;13.290;2023-07-22T01:07:18;15.80;99.90
73955;DHT22;62306;52.516;13.290;2023-07-22T01:09:45;15.80;99.90
73955;DHT22;62306;52.516;13.290;2023-07-22T01:12:12;15.70;99.90
73955;DHT22;62306;52.516;13.290;2023-07-22T01:14:40;15.80;99.90
73955;DHT22;62306;52.516;13.290;2023-07-22T01:17:10;15.80;99.90
73955;DHT22;62306;52.516;13.290;2023-07-22T01:19:38;15.70;99.90
73955;DHT22;62306;52.516;13.290;2023-07-22T01:22:06;15.70;99.90
73955;DHT22;62306;52.516;13.290;2023-07-22T01:24:35;15.80;99.90
73955;DHT22;62306;52.516;13.290;2023-07-22T01:27:02;15.80;99.90
73955;DHT22;62306;52.516;13.290;2023-07-22T01:29:34;15.80;99.90
73955;DHT22;62306;52.516;13.290;2023-07-22T01:32:01;15.80;99.90
73955;DHT22;62306;52.516;13.290;2023-07-22T01:34:28;15.80;99.90
73955;DHT22;62306;52.516;13.290;2023-07-22T01:36:57;15.80;99.90
73955;DHT22;62306;52.516;13.290;2023-07-22T01:39:25;15.90;99.90
73955;DHT22;62306;52.516;13.290;2023-07-22T01:41:54;15.90;99.90
73955;DHT22;62306;52.516;13.290;2023-07-22T01:44:21;15.80;99.90
73955;DHT22;62306;52.516;13.290;2023-07-22T01:46:48;15.80;99.90
73955;DHT22;62306;52.516;13.290;2023-07-22T01:49:15;15.80;99.90
73955;DHT22;62306;52.516;13.290;2023-07-22T01:51:42;15.80;99.90
73955;DHT22;62306;52.516;13.290;2023-07-22T01:54:09;15.70;99.90
73955;DHT22;62306;52.516;13.290;2023-07-22T01:56:36;15.70;99.90
73955;DHT22;62306;52.516;13.290;2023-07-22T01:59:05;15.70;99.90
73955;DHT22;62306;52.516;13.290;2023-07-22T02:01:32;15.70;99.90
73955;DHT22;62306;52.516;13.290;2023-07-22T02:04:00;15.60;99.90
73955;DHT22;62306;52.516;13.290;2023-07-22T02:06:27;15.60;99.90
73955;DHT22;62306;52.516;13.290;2023-07-22T02:08:54;15.60;99.90
73955;DHT22;62306;52.516;13.290;2023-07-22T02:11:21;15.50;99.90
73955;DHT22;62306;52.516;13.290;2023-07-22T02:13:49;15.50;99.90
73955;DHT22;62306;52.516;13.290;2023-07-22T02:16:17;15.50;99.90
73955;DHT22;62306;52.516;13.290;2023-07-22T02:18:44;15.50;99.90
73955;DHT22;62306;52.516;13.290;2023-07-22T02:21:12;15.40;99.90
73955;DHT22;62306;52.516;13.290;2023-07-22T02:23:39;15.30;99.90
73955;DHT22;62306;52.516;13.290;2023-07-22T02:26:06;15.30;99.90
73955;DHT22;62306;52.516;13.290;2023-07-22T02:28:33;15.20;99.90
73955;DHT22;62306;52.516;13.290;2023-07-22T02:31:02;15.20;99.90
73955;DHT22;62306;52.516;13.290;2023-07-22T02:33:34;15.10;99.90
73955;DHT22;62306;52.516;13.290;2023-07-22T02:36:01;15.10;99.90
73955;DHT22;62306;52.516;13.290;2023-07-22T02:38:28;15.10;99.90
73955;DHT22;62306;52.516;13.290;2023-07-22T02:41:01;15.00;99.90
73955;DHT22;62306;52.516;13.290;2023-07-22T02:43:28;15.00;99.90
73955;DHT22;62306;52.516;13.290;2023-07-22T02:46:00;15.00;99.90
73955;DHT22;62306;52.516;13.290;2023-07-22T02:48:27;14.90;99.90
73955;DHT22;62306;52.516;13.290;2023-07-22T02:51:01;14.90;99.90
73955;DHT22;62306;52.516;13.290;2023-07-22T02:53:31;14.90;99.90
73955;DHT22;62306;52.516;13.290;2023-07-22T02:55:59;14.90;99.90
73955;DHT22;62306;52.516;13.290;2023-07-22T02:58:32;14.80;99.90
73955;DHT22;62306;52.516;13.290;2023-07-22T03:00:59;14.80;99.90
73955;DHT22;62306;52.516;13.290;2023-07-22T03:03:27;14.80;99.90
73955;DHT22;62306;52.516;13.290;2023-07-22T03:06:00;14.70;99.90
73955;DHT22;62306;52.516;13.290;2023-07-22T03:08:30;14.70;99.90
73955;DHT22;62306;52.516;13.290;2023-07-22T03:10:57;14.70;99.90
73955;DHT22;62306;52.516;13.290;2023-07-22T03:13:24;14.70;99.90
73955;DHT22;62306;52.516;13.290;2023-07-22T03:15:55;14.70;99.90
73955;DHT22;62306;52.516;13.290;2023-07-22T03:18:23;14.70;99.90
73955;DHT22;62306;52.516;13.290;2023-07-22T03:20:50;14.70;99.90
73955;DHT22;62306;52.516;13.290;2023-07-22T03:23:21;14.70;99.90
73955;DHT22;62306;52.516;13.290;2023-07-22T03:25:48;14.70;99.90
73955;DHT22;62306;52.516;13.290;2023-07-22T03:28:15;14.70;99.90
73955;DHT22;62306;52.516;13.290;2023-07-22T03:30:44;14.70;99.90
73955;DHT22;62306;52.516;13.290;2023-07-22T03:33:11;14.70;99.90
73955;DHT22;62306;52.516;13.290;2023-07-22T03:35:38;14.70;99.90
73955;DHT22;62306;52.516;13.290;2023-07-22T03:38:05;14.70;99.90
73955;DHT22;62306;52.516;13.290;2023-07-22T03:40:33;14.80;99.90
73955;DHT22;62306;52.516;13.290;2023-07-22T03:43:01;14.80;99.90
73955;DHT22;62306;52.516;13.290;2023-07-22T03:45:28;14.80;99.90
73955;DHT22;62306;52.516;13.290;2023-07-22T03:47:57;14.80;99.90
73955;DHT22;62306;52.516;13.290;2023-07-22T03:50:24;14.90;99.90
73955;DHT22;62306;52.516;13.290;2023-07-22T03:52:51;15.00;99.90
73955;DHT22;62306;52.516;13.290;2023-07-22T03:55:18;15.00;99.90
73955;DHT22;62306;52.516;13.290;2023-07-22T03:57:46;15.10;99.90
73955;DHT22;62306;52.516;13.290;2023-07-22T04:00:13;15.10;99.90
73955;DHT22;62306;52.516;13.290;2023-07-22T04:02:40;15.20;99.90
73955;DHT22;62306;52.516;13.290;2023-07-22T04:05:08;15.20;99.90
73955;DHT22;62306;52.516;13.290;2023-07-22T04:07:35;15.10;99.90
73955;DHT22;62306;52.516;13.290;2023-07-22T04:10:03;15.10;99.90
73955;DHT22;62306;52.516;13.290;2023-07-22T04:12:30;15.10;99.90
73955;DHT22;62306;52.516;13.290;2023-07-22T04:14:59;15.10;99.90
73955;DHT22;62306;52.516;13.290;2023-07-22T04:17:26;15.10;99.90
73955;DHT22;62306;52.516;13.290;2023-07-22T04:19:52;15.20;99.90
73955;DHT22;62306;52.516;13.290;2023-07-22T04:22:20;15.20;99.90
73955;DHT22;62306;52.516;13.290;2023-07-22T04:24:47;15.30;99.90
73955;DHT22;62306;52.516;13.290;2023-07-22T04:27:15;15.30;99.90
73955;DHT22;62306;52.516;13.290;2023-07-22T04:29:42;15.30;99.90
73955;DHT22;62306;52.516;13.290;2023-07-22T04:32:10;15.40;99.90
73955;DHT22;62306;52.516;13.290;2023-07-22T04:34:37;15.40;99.90
73955;DHT22;62306;52.516;13.290;2023-07-22T04:37:05;15.50;99.90
73955;DHT22;62306;52.516;13.290;2023-07-22T04:39:32;15.50;99.90
73955;DHT22;62306;52.516;13.290;2023-07-22T04:41:59;15.50;99.90
73955;DHT22;62306;52.516;13.290;2023-07-22T04:44:27;15.60;99.90
73955;DHT22;62306;52.516;13.290;2023-07-22T04:46:54;15.70;99.90
73955;DHT22;62306;52.516;13.290;2023-07-22T04:49:22;15.70;99.90
73955;DHT22;62306;52.516;13.290;2023-07-22T04:51:49;15.90;99.90
73955;DHT22;62306;52.516;13.290;2023-07-22T04:54:16;15.90;99.90
73955;DHT22;62306;52.516;13.290;2023-07-22T04:56:43;16.00;99.90
73955;DHT22;62306;52.516;13.290;2023-07-22T04:59:10;16.00;99.90
73955;DHT22;62306;52.516;13.290;2023-07-22T05:01:39;16.00;99.90
73955;DHT22;62306;52.516;13.290;2023-07-22T05:04:05;16.10;99.90
73955;DHT22;62306;52.516;13.290;2023-07-22T05:06:34;16.10;99.90
73955;DHT22;62306;52.516;13.290;2023-07-22T05:09:01;16.20;99.90
73955;DHT22;62306;52.516;13.290;2023-07-22T05:11:29;16.30;99.90
73955;DHT22;62306;52.516;13.290;2023-07-22T05:13:55;16.40;99.90
73955;DHT22;62306;52.516;13.290;2023-07-22T05:16:22;16.50;99.90
73955;DHT22;62306;52.516;13.290;2023-07-22T05:18:49;16.60;99.90
73955;DHT22;62306;52.516;13.290;2023-07-22T05:21:16;17.00;99.90
73955;DHT22;62306;52.516;13.290;2023-07-22T05:23:44;17.90;99.90
73955;DHT22;62306;52.516;13.290;2023-07-22T05:26:11;19.10;99.90
73955;DHT22;62306;52.516;13.290;2023-07-22T05:28:38;21.00;99.10
73955;DHT22;62306;52.516;13.290;2023-07-22T05:31:05;22.50;95.10
73955;DHT22;62306;52.516;13.290;2023-07-22T05:33:32;23.50;91.70
73955;DHT22;62306;52.516;13.290;2023-07-22T05:35:59;24.00;89.90
73955;DHT22;62306;52.516;13.290;2023-07-22T05:38:26;24.10;86.80
73955;DHT22;62306;52.516;13.290;2023-07-22T05:40:54;23.90;85.90
73955;DHT22;62306;52.516;13.290;2023-07-22T05:43:21;23.60;86.40
73955;DHT22;62306;52.516;13.290;2023-07-22T05:45:48;23.60;87.10
73955;DHT22;62306;52.516;13.290;2023-07-22T05:48:15;23.20;87.50
73955;DHT22;62306;52.516;13.290;2023-07-22T05:50:42;22.70;89.80
73955;DHT22;62306;52.516;13.290;2023-07-22T05:53:09;23.40;88.00
73955;DHT22;62306;52.516;13.290;2023-07-22T05:55:36;24.30;84.50
73955;DHT22;62306;52.516;13.290;2023-07-22T05:58:04;25.00;79.60
73955;DHT22;62306;52.516;13.290;2023-07-22T06:00:32;25.10;78.90
73955;DHT22;62306;52.516;13.290;2023-07-22T06:02:59;25.40;76.70
73955;DHT22;62306;52.516;13.290;2023-07-22T06:05:26;25.80;75.80
73955;DHT22;62306;52.516;13.290;2023-07-22T06:07:53;25.90;74.20
73955;DHT22;62306;52.516;13.290;2023-07-22T06:10:22;26.50;72.40
73955;DHT22;62306;52.516;13.290;2023-07-22T06:12:49;26.60;70.80
73955;DHT22;62306;52.516;13.290;2023-07-22T06:15:17;27.30;67.90
73955;DHT22;62306;52.516;13.290;2023-07-22T06:17:44;27.60;66.80
73955;DHT22;62306;52.516;13.290;2023-07-22T06:20:11;27.40;66.00
73955;DHT22;62306;52.516;13.290;2023-07-22T06:22:38;26.90;66.60
73955;DHT22;62306;52.516;13.290;2023-07-22T06:25:05;27.10;65.80
73955;DHT22;62306;52.516;13.290;2023-07-22T06:27:33;26.40;67.00
73955;DHT22;62306;52.516;13.290;2023-07-22T06:30:00;25.70;68.20
73955;DHT22;62306;52.516;13.290;2023-07-22T06:32:29;25.20;70.10
73955;DHT22;62306;52.516;13.290;2023-07-22T06:34:56;25.20;71.20
73955;DHT22;62306;52.516;13.290;2023-07-22T06:37:23;25.80;70.00
73955;DHT22;62306;52.516;13.290;2023-07-22T06:39:50;25.80;68.50
73955;DHT22;62306;52.516;13.290;2023-07-22T06:42:17;25.70;69.00
73955;DHT22;62306;52.516;13.290;2023-07-22T06:44:43;25.60;69.90
73955;DHT22;62306;52.516;13.290;2023-07-22T06:47:10;25.20;70.70
73955;DHT22;62306;52.516;13.290;2023-07-22T06:49:39;24.90;70.90
73955;DHT22;62306;52.516;13.290;2023-07-22T06:52:07;24.30;73.30
73955;DHT22;62306;52.516;13.290;2023-07-22T06:54:34;23.80;74.60
73955;DHT22;62306;52.516;13.290;2023-07-22T06:57:01;23.40;76.80
73955;DHT22;62306;52.516;13.290;2023-07-22T06:59:28;23.20;78.00
73955;DHT22;62306;52.516;13.290;2023-07-22T07:01:55;23.00;77.30
73955;DHT22;62306;52.516;13.290;2023-07-22T07:04:22;22.90;77.90
73955;DHT22;62306;52.516;13.290;2023-07-22T07:06:50;22.90;76.50
73955;DHT22;62306;52.516;13.290;2023-07-22T07:09:17;22.80;77.60
73955;DHT22;62306;52.516;13.290;2023-07-22T07:11:44;22.80;77.50
73955;DHT22;62306;52.516;13.290;2023-07-22T07:14:12;22.90;77.40
73955;DHT22;62306;52.516;13.290;2023-07-22T07:16:38;23.00;76.10
73955;DHT22;62306;52.516;13.290;2023-07-22T07:19:05;22.60;76.30
73955;DHT22;62306;52.516;13.290;2023-07-22T07:21:32;22.40;77.70
73955;DHT22;62306;52.516;13.290;2023-07-22T07:24:01;22.20;78.40
73955;DHT22;62306;52.516;13.290;2023-07-22T07:26:28;21.60;79.70
73955;DHT22;62306;52.516;13.290;2023-07-22T07:28:55;21.60;79.90
73955;DHT22;62306;52.516;13.290;2023-07-22T07:31:21;21.70;79.90
73955;DHT22;62306;52.516;13.290;2023-07-22T07:33:49;21.60;81.30
73955;DHT22;62306;52.516;13.290;2023-07-22T07:36:16;21.90;80.80
73955;DHT22;62306;52.516;13.290;2023-07-22T07:38:42;22.40;79.90
73955;DHT22;62306;52.516;13.290;2023-07-22T07:41:11;22.60;78.30
73955;DHT22;62306;52.516;13.290;2023-07-22T07:43:38;23.10;76.50
73955;DHT22;62306;52.516;13.290;2023-07-22T07:46:19;23.40;75.00
73955;DHT22;62306;52.516;13.290;2023-07-22T07:48:48;23.40;74.00
73955;DHT22;62306;52.516;13.290;2023-07-22T07:51:15;23.60;73.60
73955;DHT22;62306;52.516;13.290;2023-07-22T07:53:43;23.60;73.60
73955;DHT22;62306;52.516;13.290;2023-07-22T07:56:12;23.70;71.20
73955;DHT22;62306;52.516;13.290;2023-07-22T07:58:39;23.40;72.20
73955;DHT22;62306;52.516;13.290;2023-07-22T08:01:06;23.30;72.00
73955;DHT22;62306;52.516;13.290;2023-07-22T08:03:35;23.10;71.40
73955;DHT22;62306;52.516;13.290;2023-07-22T08:06:02;22.90;72.80
73955;DHT22;62306;52.516;13.290;2023-07-22T08:08:29;23.00;71.50
73955;DHT22;62306;52.516;13.290;2023-07-22T08:11:00;23.00;72.20
73955;DHT22;62306;52.516;13.290;2023-07-22T08:13:28;22.90;72.30
73955;DHT22;62306;52.516;13.290;2023-07-22T08:15:57;22.90;72.50
73955;DHT22;62306;52.516;13.290;2023-07-22T08:18:24;22.90;73.70
73955;DHT22;62306;52.516;13.290;2023-07-22T08:20:51;23.00;73.20
73955;DHT22;62306;52.516;13.290;2023-07-22T08:23:19;23.00;73.00
73955;DHT22;62306;52.516;13.290;2023-07-22T08:25:46;23.20;72.40
73955;DHT22;62306;52.516;13.290;2023-07-22T08:28:13;23.50;71.40
73955;DHT22;62306;52.516;13.290;2023-07-22T08:30:41;23.60;70.50
73955;DHT22;62306;52.516;13.290;2023-07-22T08:33:08;23.10;70.00
73955;DHT22;62306;52.516;13.290;2023-07-22T08:35:36;22.60;71.10
73955;DHT22;62306;52.516;13.290;2023-07-22T08:38:03;22.50;72.30
73955;DHT22;62306;52.516;13.290;2023-07-22T08:40:33;22.50;71.70
73955;DHT22;62306;52.516;13.290;2023-07-22T08:43:00;22.50;72.10
73955;DHT22;62306;52.516;13.290;2023-07-22T08:45:30;22.30;71.80
73955;DHT22;62306;52.516;13.290;2023-07-22T08:48:02;22.10;73.10
73955;DHT22;62306;52.516;13.290;2023-07-22T08:50:34;21.80;74.60
73955;DHT22;62306;52.516;13.290;2023-07-22T08:53:03;21.80;73.00
73955;DHT22;62306;52.516;13.290;2023-07-22T08:55:31;21.90;73.60
73955;DHT22;62306;52.516;13.290;2023-07-22T08:57:58;22.10;73.90
73955;DHT22;62306;52.516;13.290;2023-07-22T09:00:26;22.40;72.80
73955;DHT22;62306;52.516;13.290;2023-07-22T09:02:53;22.90;71.40
73955;DHT22;62306;52.516;13.290;2023-07-22T09:05:22;23.10;70.20
73955;DHT22;62306;52.516;13.290;2023-07-22T09:07:49;23.30;68.60
73955;DHT22;62306;52.516;13.290;2023-07-22T09:10:17;23.40;67.80
73955;DHT22;62306;52.516;13.290;2023-07-22T09:12:44;23.50;68.20
73955;DHT22;62306;52.516;13.290;2023-07-22T09:15:12;23.60;66.60
73955;DHT22;62306;52.516;13.290;2023-07-22T09:17:39;23.30;67.00
73955;DHT22;62306;52.516;13.290;2023-07-22T09:20:08;23.30;67.70
73955;DHT22;62306;52.516;13.290;2023-07-22T09:22:36;22.80;68.00
73955;DHT22;62306;52.516;13.290;2023-07-22T09:25:13;23.10;68.20
73955;DHT22;62306;52.516;13.290;2023-07-22T09:27:40;23.10;68.10
73955;DHT22;62306;52.516;13.290;2023-07-22T09:30:20;23.10;67.80
73955;DHT22;62306;52.516;13.290;2023-07-22T09:32:47;23.00;68.10
73955;DHT22;62306;52.516;13.290;2023-07-22T09:35:14;23.10;67.50
73955;DHT22;62306;52.516;13.290;2023-07-22T09:37:43;23.30;66.90
73955;DHT22;62306;52.516;13.290;2023-07-22T09:40:17;23.30;67.00
73955;DHT22;62306;52.516;13.290;2023-07-22T09:42:46;23.20;67.70
73955;DHT22;62306;52.516;13.290;2023-07-22T09:45:13;23.10;67.40
73955;DHT22;62306;52.516;13.290;2023-07-22T09:47:41;23.20;66.70
73955;DHT22;62306;52.516;13.290;2023-07-22T09:50:11;23.20;66.30
73955;DHT22;62306;52.516;13.290;2023-07-22T09:52:47;23.20;66.40
73955;DHT22;62306;52.516;13.290;2023-07-22T09:55:16;23.10;66.40
73955;DHT22;62306;52.516;13.290;2023-07-22T09:57:45;22.90;66.20
73955;DHT22;62306;52.516;13.290;2023-07-22T10:00:13;22.80;66.30
73955;DHT22;62306;52.516;13.290;2023-07-22T10:02:42;22.60;66.70
73955;DHT22;62306;52.516;13.290;2023-07-22T10:05:12;22.50;66.60
73955;DHT22;62306;52.516;13.290;2023-07-22T10:07:43;22.50;67.20
73955;DHT22;62306;52.516;13.290;2023-07-22T10:10:14;22.70;67.10
73955;DHT22;62306;52.516;13.290;2023-07-22T10:12:42;23.00;64.60
73955;DHT22;62306;52.516;13.290;2023-07-22T10:15:10;23.10;64.90
73955;DHT22;62306;52.516;13.290;2023-07-22T10:17:38;23.30;63.80
73955;DHT22;62306;52.516;13.290;2023-07-22T10:20:06;23.40;63.70
73955;DHT22;62306;52.516;13.290;2023-07-22T10:22:36;23.70;62.60
73955;DHT22;62306;52.516;13.290;2023-07-22T10:25:05;24.10;62.40
73955;DHT22;62306;52.516;13.290;2023-07-22T10:27:35;24.10;61.30
73955;DHT22;62306;52.516;13.290;2023-07-22T10:30:06;24.10;59.60
73955;DHT22;62306;52.516;13.290;2023-07-22T10:32:34;23.90;60.00
73955;DHT22;62306;52.516;13.290;2023-07-22T10:35:02;23.90;60.60
73955;DHT22;62306;52.516;13.290;2023-07-22T10:37:30;23.90;61.00
73955;DHT22;62306;52.516;13.290;2023-07-22T10:40:06;23.90;60.00
73955;DHT22;62306;52.516;13.290;2023-07-22T10:42:51;23.70;59.80
73955;DHT22;62306;52.516;13.290;2023-07-22T10:45:27;23.50;59.80
73955;DHT22;62306;52.516;13.290;2023-07-22T10:48:02;23.30;60.20
73955;DHT22;62306;52.516;13.290;2023-07-22T10:50:40;23.00;59.60
73955;DHT22;62306;52.516;13.290;2023-07-22T10:53:12;22.80;59.70
73955;DHT22;62306;52.516;13.290;2023-07-22T10:56:11;22.70;59.80
73955;DHT22;62306;52.516;13.290;2023-07-22T10:58:59;22.70;60.40
73955;DHT22;62306;52.516;13.290;2023-07-22T11:01:35;22.10;60.70
73955;DHT22;62306;52.516;13.290;2023-07-22T11:04:07;22.50;61.80
73955;DHT22;62306;52.516;13.290;2023-07-22T11:06:37;22.50;62.40
73955;DHT22;62306;52.516;13.290;2023-07-22T11:09:04;22.30;63.70
73955;DHT22;62306;52.516;13.290;2023-07-22T11:11:40;22.40;63.80
73955;DHT22;62306;52.516;13.290;2023-07-22T11:14:15;22.40;64.20
73955;DHT22;62306;52.516;13.290;2023-07-22T11:16:44;22.60;62.60
73955;DHT22;62306;52.516;13.290;2023-07-22T11:19:13;22.70;62.30
73955;DHT22;62306;52.516;13.290;2023-07-22T11:21:40;23.00;62.30
73955;DHT22;62306;52.516;13.290;2023-07-22T11:24:07;23.40;61.40
73955;DHT22;62306;52.516;13.290;2023-07-22T11:26:34;23.80;60.00
73955;DHT22;62306;52.516;13.290;2023-07-22T11:29:02;24.00;59.70
73955;DHT22;62306;52.516;13.290;2023-07-22T11:31:35;24.20;59.10
73955;DHT22;62306;52.516;13.290;2023-07-22T11:34:03;24.40;58.00
73955;DHT22;62306;52.516;13.290;2023-07-22T11:36:30;24.40;57.40
73955;DHT22;62306;52.516;13.290;2023-07-22T11:39:02;24.20;58.10
73955;DHT22;62306;52.516;13.290;2023-07-22T11:41:29;24.30;57.60
73955;DHT22;62306;52.516;13.290;2023-07-22T11:43:57;24.40;57.70
73955;DHT22;62306;52.516;13.290;2023-07-22T11:46:25;24.60;57.80
73955;DHT22;62306;52.516;13.290;2023-07-22T11:48:54;24.60;57.80
73955;DHT22;62306;52.516;13.290;2023-07-22T11:51:23;24.90;55.90
73955;DHT22;62306;52.516;13.290;2023-07-22T11:53:52;25.20;55.40
73955;DHT22;62306;52.516;13.290;2023-07-22T11:56:21;25.10;55.40
73955;DHT22;62306;52.516;13.290;2023-07-22T11:58:51;25.10;55.60
73955;DHT22;62306;52.516;13.290;2023-07-22T12:01:19;25.10;55.90
73955;DHT22;62306;52.516;13.290;2023-07-22T12:03:47;25.00;54.70
73955;DHT22;62306;52.516;13.290;2023-07-22T12:06:16;24.80;55.00
73955;DHT22;62306;52.516;13.290;2023-07-22T12:08:44;24.60;55.10
73955;DHT22;62306;52.516;13.290;2023-07-22T12:11:18;24.50;54.80
73955;DHT22;62306;52.516;13.290;2023-07-22T12:13:45;24.60;54.90
73955;DHT22;62306;52.516;13.290;2023-07-22T12:16:21;24.60;54.70
73955;DHT22;62306;52.516;13.290;2023-07-22T12:18:48;24.80;55.60
73955;DHT22;62306;52.516;13.290;2023-07-22T12:21:16;24.70;55.40
73955;DHT22;62306;52.516;13.290;2023-07-22T12:23:43;25.00;54.40
73955;DHT22;62306;52.516;13.290;2023-07-22T12:26:10;25.00;54.70
73955;DHT22;62306;52.516;13.290;2023-07-22T12:28:37;24.80;55.00
73955;DHT22;62306;52.516;13.290;2023-07-22T12:31:04;24.60;55.30
73955;DHT22;62306;52.516;13.290;2023-07-22T12:33:31;24.60;55.40
73955;DHT22;62306;52.516;13.290;2023-07-22T12:35:58;24.50;56.00
73955;DHT22;62306;52.516;13.290;2023-07-22T12:38:26;24.20;56.30
73955;DHT22;62306;52.516;13.290;2023-07-22T12:40:53;24.10;56.90
73955;DHT22;62306;52.516;13.290;2023-07-22T12:43:19;24.30;56.90
73955;DHT22;62306;52.516;13.290;2023-07-22T12:45:47;24.40;56.30
73955;DHT22;62306;52.516;13.290;2023-07-22T12:48:14;24.40;56.70
73955;DHT22;62306;52.516;13.290;2023-07-22T12:50:41;24.30;57.30
73955;DHT22;62306;52.516;13.290;2023-07-22T12:53:08;24.60;55.90
73955;DHT22;62306;52.516;13.290;2023-07-22T12:55:36;24.40;56.60
73955;DHT22;62306;52.516;13.290;2023-07-22T12:58:03;24.30;56.50
73955;DHT22;62306;52.516;13.290;2023-07-22T13:00:30;24.20;56.20
73955;DHT22;62306;52.516;13.290;2023-07-22T13:02:57;24.20;56.00
73955;DHT22;62306;52.516;13.290;2023-07-22T13:05:24;24.20;56.10
73955;DHT22;62306;52.516;13.290;2023-07-22T13:07:51;24.40;55.40
73955;DHT22;62306;52.516;13.290;2023-07-22T13:10:20;24.70;55.20
73955;DHT22;62306;52.516;13.290;2023-07-22T13:12:52;24.60;54.70
73955;DHT22;62306;52.516;13.290;2023-07-22T13:15:19;24.70;55.20
73955;DHT22;62306;52.516;13.290;2023-07-22T13:17:46;24.70;55.40
73955;DHT22;62306;52.516;13.290;2023-07-22T13:20:13;24.70;55.70
73955;DHT22;62306;52.516;13.290;2023-07-22T13:22:40;24.80;55.20
73955;DHT22;62306;52.516;13.290;2023-07-22T13:25:08;24.70;54.50
73955;DHT22;62306;52.516;13.290;2023-07-22T13:27:35;24.50;55.10
73955;DHT22;62306;52.516;13.290;2023-07-22T13:30:06;24.40;55.50
73955;DHT22;62306;52.516;13.290;2023-07-22T13:32:33;24.40;56.00
73955;DHT22;62306;52.516;13.290;2023-07-22T13:35:00;24.60;55.80
73955;DHT22;62306;52.516;13.290;2023-07-22T13:37:27;24.90;54.70
73955;DHT22;62306;52.516;13.290;2023-07-22T13:39:54;24.80;54.70
73955;DHT22;62306;52.516;13.290;2023-07-22T13:42:23;24.70;54.90
73955;DHT22;62306;52.516;13.290;2023-07-22T13:44:50;24.80;55.00
73955;DHT22;62306;52.516;13.290;2023-07-22T13:47:18;25.00;54.40
73955;DHT22;62306;52.516;13.290;2023-07-22T13:49:45;25.30;53.90
73955;DHT22;62306;52.516;13.290;2023-07-22T13:52:12;25.00;54.00
73955;DHT22;62306;52.516;13.290;2023-07-22T13:54:40;25.00;54.00
73955;DHT22;62306;52.516;13.290;2023-07-22T13:57:07;24.80;54.80
73955;DHT22;62306;52.516;13.290;2023-07-22T13:59:34;24.70;54.90
73955;DHT22;62306;52.516;13.290;2023-07-22T14:02:00;24.60;53.40
73955;DHT22;62306;52.516;13.290;2023-07-22T14:04:30;24.30;54.10
73955;DHT22;62306;52.516;13.290;2023-07-22T14:06:57;24.10;55.00
73955;DHT22;62306;52.516;13.290;2023-07-22T14:09:24;24.00;55.70
73955;DHT22;62306;52.516;13.290;2023-07-22T14:11:51;24.00;55.70
73955;DHT22;62306;52.516;13.290;2023-07-22T14:14:17;24.00;55.80
73955;DHT22;62306;52.516;13.290;2023-07-22T14:16:45;23.90;55.90
73955;DHT22;62306;52.516;13.290;2023-07-22T14:19:12;24.00;55.80
73955;DHT22;62306;52.516;13.290;2023-07-22T14:21:40;24.00;56.10
73955;DHT22;62306;52.516;13.290;2023-07-22T14:24:07;24.10;55.90
73955;DHT22;62306;52.516;13.290;2023-07-22T14:26:34;24.10;56.30
73955;DHT22;62306;52.516;13.290;2023-07-22T14:29:01;24.40;56.50
73955;DHT22;62306;52.516;13.290;2023-07-22T14:31:27;24.20;56.40
73955;DHT22;62306;52.516;13.290;2023-07-22T14:33:54;24.30;56.60
73955;DHT22;62306;52.516;13.290;2023-07-22T14:36:22;24.40;56.10
73955;DHT22;62306;52.516;13.290;2023-07-22T14:38:51;24.30;56.10
73955;DHT22;62306;52.516;13.290;2023-07-22T14:41:18;24.30;56.00
73955;DHT22;62306;52.516;13.290;2023-07-22T14:43:44;24.20;56.20
73955;DHT22;62306;52.516;13.290;2023-07-22T14:46:11;24.20;56.90
73955;DHT22;62306;52.516;13.290;2023-07-22T14:48:38;24.10;56.30
73955;DHT22;62306;52.516;13.290;2023-07-22T14:51:05;23.90;56.40
73955;DHT22;62306;52.516;13.290;2023-07-22T14:53:32;23.70;57.30
73955;DHT22;62306;52.516;13.290;2023-07-22T14:56:01;23.60;57.90
73955;DHT22;62306;52.516;13.290;2023-07-22T14:58:27;23.40;58.50
73955;DHT22;62306;52.516;13.290;2023-07-22T15:00:54;23.40;59.00
73955;DHT22;62306;52.516;13.290;2023-07-22T15:03:21;23.50;59.70
73955;DHT22;62306;52.516;13.290;2023-07-22T15:05:48;23.70;59.10
73955;DHT22;62306;52.516;13.290;2023-07-22T15:08:15;23.90;58.50
73955;DHT22;62306;52.516;13.290;2023-07-22T15:10:42;24.00;58.20
73955;DHT22;62306;52.516;13.290;2023-07-22T15:13:10;24.20;57.60
73955;DHT22;62306;52.516;13.290;2023-07-22T15:15:37;24.20;57.40
73955;DHT22;62306;52.516;13.290;2023-07-22T15:18:04;24.10;57.10
73955;DHT22;62306;52.516;13.290;2023-07-22T15:20:31;23.80;57.70